sensor_id;sensor_type;location;lat;lon;timestamp;P1;durP1;ratioP1;P2;durP2;ratioP2
73599;SDS011;61877;48.246;9.220;2023-09-18T00:01:45;7.80;;;3.10;;
73599;SDS011;61877;48.246;9.220;2023-09-18T00:04:10;10.13;;;3.47;;
73599;SDS011;61877;48.246;9.220;2023-09-18T00:06:36;7.80;;;3.05;;
73599;SDS011;61877;48.246;9.220;2023-09-18T00:09:01;7.40;;;3.10;;
73599;SDS011;61877;48.246;9.220;2023-09-18T00:11:26;8.37;;;3.20;;
73599;SDS011;61877;48.246;9.220;2023-09-18T00:13:53;9.23;;;3.53;;
73599;SDS011;61877;48.246;9.220;2023-09-18T00:16:19;8.63;;;3.10;;
73599;SDS011;61877;48.246;9.220;2023-09-18T00:18:44;9.07;;;3.30;;
73599;SDS011;61877;48.246;9.220;2023-09-18T00:21:09;9.93;;;3.50;;
73599;SDS011;61877;48.246;9.220;2023-09-18T00:23:35;8.27;;;3.03;;
73599;SDS011;61877;48.246;9.220;2023-09-18T00:26:00;9.03;;;3.37;;
73599;SDS011;61877;48.246;9.220;2023-09-18T00:28:26;7.57;;;3.30;;
73599;SDS011;61877;48.246;9.220;2023-09-18T00:30:52;7.57;;;2.90;;
73599;SDS011;61877;48.246;9.220;2023-09-18T00:33:18;9.23;;;3.53;;
73599;SDS011;61877;48.246;9.220;2023-09-18T00:35:45;6.80;;;2.90;;
73599;SDS011;61877;48.246;9.220;2023-09-18T00:38:10;7.88;;;3.15;;
73599;SDS011;61877;48.246;9.220;2023-09-18T00:40:36;7.67;;;3.40;;
73599;SDS011;61877;48.246;9.220;2023-09-18T00:43:01;8.50;;;3.43;;
73599;SDS011;61877;48.246;9.220;2023-09-18T00:45:27;8.88;;;3.10;;
73599;SDS011;61877;48.246;9.220;2023-09-18T00:47:54;7.33;;;3.50;;
73599;SDS011;61877;48.246;9.220;2023-09-18T00:50:19;9.88;;;3.63;;
73599;SDS011;61877;48.246;9.220;2023-09-18T00:52:45;8.55;;;3.40;;
73599;SDS011;61877;48.246;9.220;2023-09-18T00:55:11;7.53;;;3.03;;
73599;SDS011;61877;48.246;9.220;2023-09-18T00:57:36;8.27;;;3.40;;
73599;SDS011;61877;48.246;9.220;2023-09-18T01:00:02;7.60;;;3.30;;
73599;SDS011;61877;48.246;9.220;2023-09-18T01:02:29;9.55;;;3.80;;
73599;SDS011;61877;48.246;9.220;2023-09-18T01:04:56;7.63;;;3.60;;
73599;SDS011;61877;48.246;9.220;2023-09-18T01:07:22;7.95;;;3.60;;
73599;SDS011;61877;48.246;9.220;2023-09-18T01:09:48;10.38;;;3.92;;
73599;SDS011;61877;48.246;9.220;2023-09-18T01:12:16;8.03;;;3.70;;
73599;SDS011;61877;48.246;9.220;2023-09-18T01:14:44;10.38;;;3.80;;
73599;SDS011;61877;48.246;9.220;2023-09-18T01:17:20;9.88;;;3.88;;
73599;SDS011;61877;48.246;9.220;2023-09-18T01:19:46;7.80;;;3.67;;
73599;SDS011;61877;48.246;9.220;2023-09-18T01:22:14;7.97;;;3.80;;
73599;SDS011;61877;48.246;9.220;2023-09-18T01:24:42;8.75;;;3.95;;
73599;SDS011;61877;48.246;9.220;2023-09-18T01:27:09;8.63;;;3.80;;
73599;SDS011;61877;48.246;9.220;2023-09-18T01:29:35;8.98;;;3.88;;
73599;SDS011;61877;48.246;9.220;2023-09-18T01:32:01;8.10;;;3.80;;
73599;SDS011;61877;48.246;9.220;2023-09-18T01:34:28;11.30;;;3.80;;
73599;SDS011;61877;48.246;9.220;2023-09-18T01:36:57;8.35;;;3.95;;
73599;SDS011;61877;48.246;9.220;2023-09-18T01:39:24;9.77;;;3.80;;
73599;SDS011;61877;48.246;9.220;2023-09-18T01:41:54;8.10;;;3.67;;
73599;SDS011;61877;48.246;9.220;2023-09-18T01:44:19;8.35;;;3.58;;
73599;SDS011;61877;48.246;9.220;2023-09-18T01:46:45;9.57;;;3.67;;
73599;SDS011;61877;48.246;9.220;2023-09-18T01:49:10;7.90;;;3.75;;
73599;SDS011;61877;48.246;9.220;2023-09-18T01:51:36;9.33;;;3.43;;
73599;SDS011;61877;48.246;9.220;2023-09-18T01:54:01;8.10;;;3.40;;
73599;SDS011;61877;48.246;9.220;2023-09-18T01:56:27;10.38;;;3.85;;
73599;SDS011;61877;48.246;9.220;2023-09-18T01:58:54;10.00;;;4.20;;
73599;SDS011;61877;48.246;9.220;2023-09-18T02:01:19;8.82;;;3.72;;
73599;SDS011;61877;48.246;9.220;2023-09-18T02:03:45;8.47;;;3.97;;
73599;SDS011;61877;48.246;9.220;2023-09-18T02:06:11;9.85;;;4.25;;
73599;SDS011;61877;48.246;9.220;2023-09-18T02:08:36;8.43;;;3.63;;
73599;SDS011;61877;48.246;9.220;2023-09-18T02:11:02;10.53;;;4.13;;
73599;SDS011;61877;48.246;9.220;2023-09-18T02:13:27;8.15;;;3.72;;
73599;SDS011;61877;48.246;9.220;2023-09-18T02:15:55;10.13;;;3.83;;
73599;SDS011;61877;48.246;9.220;2023-09-18T02:18:21;9.57;;;3.92;;
73599;SDS011;61877;48.246;9.220;2023-09-18T02:20:46;10.07;;;3.93;;
73599;SDS011;61877;48.246;9.220;2023-09-18T02:23:12;10.30;;;3.78;;
73599;SDS011;61877;48.246;9.220;2023-09-18T02:25:37;8.83;;;3.97;;
73599;SDS011;61877;48.246;9.220;2023-09-18T02:28:03;9.60;;;3.83;;
73599;SDS011;61877;48.246;9.220;2023-09-18T02:30:28;9.73;;;3.70;;
73599;SDS011;61877;48.246;9.220;2023-09-18T02:32:55;8.63;;;3.67;;
73599;SDS011;61877;48.246;9.220;2023-09-18T02:35:20;8.07;;;3.90;;
73599;SDS011;61877;48.246;9.220;2023-09-18T02:37:46;8.40;;;3.50;;
73599;SDS011;61877;48.246;9.220;2023-09-18T02:40:11;9.93;;;3.77;;
73599;SDS011;61877;48.246;9.220;2023-09-18T02:42:37;8.07;;;3.80;;
73599;SDS011;61877;48.246;9.220;2023-09-18T02:45:02;9.52;;;4.35;;
73599;SDS011;61877;48.246;9.220;2023-09-18T02:47:28;7.70;;;3.67;;
73599;SDS011;61877;48.246;9.220;2023-09-18T02:49:55;7.85;;;3.63;;
73599;SDS011;61877;48.246;9.220;2023-09-18T02:52:21;8.65;;;3.80;;
73599;SDS011;61877;48.246;9.220;2023-09-18T02:54:46;10.00;;;3.93;;
73599;SDS011;61877;48.246;9.220;2023-09-18T02:57:11;9.73;;;3.80;;
73599;SDS011;61877;48.246;9.220;2023-09-18T02:59:37;8.93;;;3.77;;
73599;SDS011;61877;48.246;9.220;2023-09-18T03:02:02;8.45;;;3.53;;
73599;SDS011;61877;48.246;9.220;2023-09-18T03:04:28;8.40;;;3.50;;
73599;SDS011;61877;48.246;9.220;2023-09-18T03:06:56;9.18;;;3.67;;
73599;SDS011;61877;48.246;9.220;2023-09-18T03:09:22;9.43;;;3.60;;
73599;SDS011;61877;48.246;9.220;2023-09-18T03:11:47;8.80;;;3.83;;
73599;SDS011;61877;48.246;9.220;2023-09-18T03:14:13;8.57;;;4.20;;
73599;SDS011;61877;48.246;9.220;2023-09-18T03:16:38;8.45;;;3.60;;
73599;SDS011;61877;48.246;9.220;2023-09-18T03:19:04;8.37;;;3.80;;
73599;SDS011;61877;48.246;9.220;2023-09-18T03:21:32;10.95;;;3.92;;
73599;SDS011;61877;48.246;9.220;2023-09-18T03:23:59;10.37;;;3.70;;
73599;SDS011;61877;48.246;9.220;2023-09-18T03:26:24;7.78;;;3.58;;
73599;SDS011;61877;48.246;9.220;2023-09-18T03:28:50;9.20;;;3.80;;
73599;SDS011;61877;48.246;9.220;2023-09-18T03:31:19;8.77;;;3.60;;
73599;SDS011;61877;48.246;9.220;2023-09-18T03:33:45;9.87;;;3.80;;
73599;SDS011;61877;48.246;9.220;2023-09-18T03:36:10;9.13;;;3.40;;
73599;SDS011;61877;48.246;9.220;2023-09-18T03:38:36;8.30;;;3.60;;
73599;SDS011;61877;48.246;9.220;2023-09-18T03:41:03;8.87;;;4.00;;
73599;SDS011;61877;48.246;9.220;2023-09-18T03:43:29;8.97;;;4.23;;
73599;SDS011;61877;48.246;9.220;2023-09-18T03:45:54;11.02;;;4.40;;
73599;SDS011;61877;48.246;9.220;2023-09-18T03:48:19;9.90;;;4.10;;
73599;SDS011;61877;48.246;9.220;2023-09-18T03:50:47;8.80;;;3.83;;
73599;SDS011;61877;48.246;9.220;2023-09-18T03:53:12;7.97;;;3.80;;
73599;SDS011;61877;48.246;9.220;2023-09-18T03:55:45;8.85;;;3.90;;
73599;SDS011;61877;48.246;9.220;2023-09-18T03:58:12;9.97;;;3.93;;
73599;SDS011;61877;48.246;9.220;2023-09-18T04:00:39;7.60;;;3.80;;
73599;SDS011;61877;48.246;9.220;2023-09-18T04:03:07;9.27;;;3.75;;
73599;SDS011;61877;48.246;9.220;2023-09-18T04:05:33;9.23;;;3.60;;
73599;SDS011;61877;48.246;9.220;2023-09-18T04:07:58;10.00;;;3.80;;
73599;SDS011;61877;48.246;9.220;2023-09-18T04:10:24;8.13;;;3.80;;
73599;SDS011;61877;48.246;9.220;2023-09-18T04:12:51;9.37;;;3.67;;
73599;SDS011;61877;48.246;9.220;2023-09-18T04:15:18;7.82;;;3.55;;
73599;SDS011;61877;48.246;9.220;2023-09-18T04:17:44;8.70;;;4.00;;
73599;SDS011;61877;48.246;9.220;2023-09-18T04:20:10;8.57;;;3.90;;
73599;SDS011;61877;48.246;9.220;2023-09-18T04:22:36;8.68;;;3.58;;
73599;SDS011;61877;48.246;9.220;2023-09-18T04:25:01;8.90;;;3.60;;
73599;SDS011;61877;48.246;9.220;2023-09-18T04:27:27;8.43;;;3.50;;
73599;SDS011;61877;48.246;9.220;2023-09-18T04:29:52;10.20;;;3.63;;
73599;SDS011;61877;48.246;9.220;2023-09-18T04:32:20;9.37;;;3.70;;
73599;SDS011;61877;48.246;9.220;2023-09-18T04:34:46;10.20;;;3.78;;
73599;SDS011;61877;48.246;9.220;2023-09-18T04:37:11;10.10;;;3.90;;
73599;SDS011;61877;48.246;9.220;2023-09-18T04:39:36;8.37;;;3.83;;
73599;SDS011;61877;48.246;9.220;2023-09-18T04:42:02;9.43;;;3.77;;
73599;SDS011;61877;48.246;9.220;2023-09-18T04:44:28;8.00;;;3.60;;
73599;SDS011;61877;48.246;9.220;2023-09-18T04:46:53;8.85;;;3.70;;
73599;SDS011;61877;48.246;9.220;2023-09-18T04:49:20;9.40;;;3.93;;
73599;SDS011;61877;48.246;9.220;2023-09-18T04:51:46;8.10;;;3.97;;
73599;SDS011;61877;48.246;9.220;2023-09-18T04:54:13;10.52;;;4.10;;
73599;SDS011;61877;48.246;9.220;2023-09-18T04:56:39;9.87;;;4.00;;
73599;SDS011;61877;48.246;9.220;2023-09-18T04:59:04;9.53;;;4.03;;
73599;SDS011;61877;48.246;9.220;2023-09-18T05:01:30;8.90;;;4.10;;
73599;SDS011;61877;48.246;9.220;2023-09-18T05:03:55;9.68;;;4.10;;
73599;SDS011;61877;48.246;9.220;2023-09-18T05:06:22;10.47;;;3.43;;
73599;SDS011;61877;48.246;9.220;2023-09-18T05:08:47;8.25;;;3.70;;
73599;SDS011;61877;48.246;9.220;2023-09-18T05:11:13;8.90;;;4.17;;
73599;SDS011;61877;48.246;9.220;2023-09-18T05:13:39;10.83;;;3.53;;
73599;SDS011;61877;48.246;9.220;2023-09-18T05:16:04;8.23;;;3.70;;
73599;SDS011;61877;48.246;9.220;2023-09-18T05:18:30;8.60;;;3.57;;
73599;SDS011;61877;48.246;9.220;2023-09-18T05:20:58;8.68;;;3.60;;
73599;SDS011;61877;48.246;9.220;2023-09-18T05:23:35;8.85;;;3.75;;
73599;SDS011;61877;48.246;9.220;2023-09-18T05:26:01;10.47;;;3.70;;
73599;SDS011;61877;48.246;9.220;2023-09-18T05:28:26;8.20;;;3.75;;
73599;SDS011;61877;48.246;9.220;2023-09-18T05:30:51;9.43;;;3.80;;
73599;SDS011;61877;48.246;9.220;2023-09-18T05:33:17;8.43;;;3.43;;
73599;SDS011;61877;48.246;9.220;2023-09-18T05:35:48;9.00;;;3.60;;
73599;SDS011;61877;48.246;9.220;2023-09-18T05:38:15;10.20;;;3.80;;
73599;SDS011;61877;48.246;9.220;2023-09-18T05:40:43;8.85;;;3.75;;
73599;SDS011;61877;48.246;9.220;2023-09-18T05:43:09;8.18;;;3.67;;
73599;SDS011;61877;48.246;9.220;2023-09-18T05:45:34;10.33;;;3.70;;
73599;SDS011;61877;48.246;9.220;2023-09-18T05:48:00;11.60;;;5.60;;
73599;SDS011;61877;48.246;9.220;2023-09-18T05:50:25;11.77;;;3.90;;
73599;SDS011;61877;48.246;9.220;2023-09-18T05:52:57;11.80;;;3.70;;
73599;SDS011;61877;48.246;9.220;2023-09-18T05:55:27;7.87;;;3.17;;
73599;SDS011;61877;48.246;9.220;2023-09-18T05:57:59;9.82;;;3.60;;
73599;SDS011;61877;48.246;9.220;2023-09-18T06:00:25;8.18;;;3.67;;
73599;SDS011;61877;48.246;9.220;2023-09-18T06:02:52;10.00;;;3.53;;
73599;SDS011;61877;48.246;9.220;2023-09-18T06:05:18;9.30;;;3.67;;
73599;SDS011;61877;48.246;9.220;2023-09-18T06:07:43;11.82;;;3.30;;
73599;SDS011;61877;48.246;9.220;2023-09-18T06:10:09;9.13;;;3.70;;
73599;SDS011;61877;48.246;9.220;2023-09-18T06:12:38;8.93;;;3.63;;
73599;SDS011;61877;48.246;9.220;2023-09-18T06:15:06;7.88;;;3.40;;
73599;SDS011;61877;48.246;9.220;2023-09-18T06:17:31;9.05;;;3.60;;
73599;SDS011;61877;48.246;9.220;2023-09-18T06:19:57;8.57;;;3.70;;
73599;SDS011;61877;48.246;9.220;2023-09-18T06:22:23;8.63;;;3.80;;
73599;SDS011;61877;48.246;9.220;2023-09-18T06:24:48;9.13;;;3.90;;
73599;SDS011;61877;48.246;9.220;2023-09-18T06:27:15;9.93;;;3.75;;
73599;SDS011;61877;48.246;9.220;2023-09-18T06:29:41;8.97;;;3.33;;
73599;SDS011;61877;48.246;9.220;2023-09-18T06:32:20;8.55;;;3.33;;
73599;SDS011;61877;48.246;9.220;2023-09-18T06:34:45;9.20;;;3.73;;
73599;SDS011;61877;48.246;9.220;2023-09-18T06:37:10;7.90;;;3.55;;
73599;SDS011;61877;48.246;9.220;2023-09-18T06:39:39;9.20;;;3.50;;
73599;SDS011;61877;48.246;9.220;2023-09-18T06:42:04;8.68;;;3.60;;
73599;SDS011;61877;48.246;9.220;2023-09-18T06:44:30;9.33;;;3.50;;
73599;SDS011;61877;48.246;9.220;2023-09-18T06:46:56;9.68;;;3.75;;
73599;SDS011;61877;48.246;9.220;2023-09-18T06:49:22;10.20;;;3.90;;
73599;SDS011;61877;48.246;9.220;2023-09-18T06:51:49;9.88;;;3.55;;
73599;SDS011;61877;48.246;9.220;2023-09-18T06:54:14;9.93;;;3.67;;
73599;SDS011;61877;48.246;9.220;2023-09-18T06:56:42;8.70;;;3.42;;
73599;SDS011;61877;48.246;9.220;2023-09-18T06:59:07;11.37;;;3.73;;
73599;SDS011;61877;48.246;9.220;2023-09-18T07:01:33;10.60;;;3.60;;
73599;SDS011;61877;48.246;9.220;2023-09-18T07:03:58;8.30;;;3.20;;
73599;SDS011;61877;48.246;9.220;2023-09-18T07:06:26;9.45;;;3.30;;
73599;SDS011;61877;48.246;9.220;2023-09-18T07:08:51;8.98;;;3.20;;
73599;SDS011;61877;48.246;9.220;2023-09-18T07:11:20;10.53;;;3.30;;
73599;SDS011;61877;48.246;9.220;2023-09-18T07:13:48;9.07;;;3.70;;
73599;SDS011;61877;48.246;9.220;2023-09-18T07:16:14;11.38;;;3.60;;
73599;SDS011;61877;48.246;9.220;2023-09-18T07:18:39;9.97;;;3.30;;
73599;SDS011;61877;48.246;9.220;2023-09-18T07:21:05;9.13;;;3.27;;
73599;SDS011;61877;48.246;9.220;2023-09-18T07:23:51;10.10;;;3.45;;
73599;SDS011;61877;48.246;9.220;2023-09-18T07:26:17;12.40;;;3.40;;
73599;SDS011;61877;48.246;9.220;2023-09-18T07:28:42;11.83;;;3.07;;
73599;SDS011;61877;48.246;9.220;2023-09-18T07:31:08;10.52;;;2.80;;
73599;SDS011;61877;48.246;9.220;2023-09-18T07:33:34;10.77;;;2.78;;
73599;SDS011;61877;48.246;9.220;2023-09-18T07:36:01;10.03;;;2.60;;
73599;SDS011;61877;48.246;9.220;2023-09-18T07:38:28;9.02;;;2.35;;
73599;SDS011;61877;48.246;9.220;2023-09-18T07:41:05;9.32;;;1.88;;
73599;SDS011;61877;48.246;9.220;2023-09-18T07:43:33;8.80;;;1.80;;
73599;SDS011;61877;48.246;9.220;2023-09-18T07:46:01;8.50;;;2.00;;
73599;SDS011;61877;48.246;9.220;2023-09-18T07:48:27;8.65;;;1.90;;
73599;SDS011;61877;48.246;9.220;2023-09-18T07:50:55;9.27;;;1.77;;
73599;SDS011;61877;48.246;9.220;2023-09-18T07:53:20;8.33;;;1.83;;
73599;SDS011;61877;48.246;9.220;2023-09-18T07:55:47;8.10;;;1.50;;
73599;SDS011;61877;48.246;9.220;2023-09-18T07:58:29;9.33;;;1.50;;
73599;SDS011;61877;48.246;9.220;2023-09-18T08:00:59;6.80;;;1.30;;
73599;SDS011;61877;48.246;9.220;2023-09-18T08:03:29;7.03;;;1.48;;
73599;SDS011;61877;48.246;9.220;2023-09-18T08:06:10;7.72;;;1.30;;
73599;SDS011;61877;48.246;9.220;2023-09-18T08:08:47;8.70;;;1.80;;
73599;SDS011;61877;48.246;9.220;2023-09-18T08:11:21;6.77;;;1.30;;
73599;SDS011;61877;48.246;9.220;2023-09-18T08:13:49;5.38;;;1.20;;
73599;SDS011;61877;48.246;9.220;2023-09-18T08:16:15;9.18;;;1.67;;
73599;SDS011;61877;48.246;9.220;2023-09-18T08:18:41;6.00;;;1.25;;
73599;SDS011;61877;48.246;9.220;2023-09-18T08:21:06;6.47;;;1.37;;
73599;SDS011;61877;48.246;9.220;2023-09-18T08:23:32;7.00;;;1.40;;
73599;SDS011;61877;48.246;9.220;2023-09-18T08:25:57;6.60;;;1.35;;
73599;SDS011;61877;48.246;9.220;2023-09-18T08:28:28;8.38;;;1.92;;
73599;SDS011;61877;48.246;9.220;2023-09-18T08:33:45;7.78;;;1.40;;
73599;SDS011;61877;48.246;9.220;2023-09-18T08:36:13;6.27;;;1.50;;
73599;SDS011;61877;48.246;9.220;2023-09-18T08:38:39;5.90;;;1.35;;
73599;SDS011;61877;48.246;9.220;2023-09-18T08:41:06;7.18;;;1.40;;
73599;SDS011;61877;48.246;9.220;2023-09-18T08:43:33;5.40;;;1.23;;
73599;SDS011;61877;48.246;9.220;2023-09-18T08:46:03;6.15;;;1.20;;
73599;SDS011;61877;48.246;9.220;2023-09-18T08:48:48;5.13;;;1.10;;
73599;SDS011;61877;48.246;9.220;2023-09-18T08:51:16;7.97;;;1.30;;
73599;SDS011;61877;48.246;9.220;2023-09-18T08:53:43;5.97;;;1.25;;
73599;SDS011;61877;48.246;9.220;2023-09-18T08:56:17;5.67;;;1.30;;
73599;SDS011;61877;48.246;9.220;2023-09-18T08:58:43;5.30;;;1.33;;
73599;SDS011;61877;48.246;9.220;2023-09-18T09:01:09;6.32;;;1.35;;
73599;SDS011;61877;48.246;9.220;2023-09-18T09:03:35;6.57;;;1.57;;
73599;SDS011;61877;48.246;9.220;2023-09-18T09:06:07;5.80;;;1.20;;
73599;SDS011;61877;48.246;9.220;2023-09-18T09:08:34;5.50;;;1.10;;
73599;SDS011;61877;48.246;9.220;2023-09-18T09:11:00;5.93;;;1.27;;
73599;SDS011;61877;48.246;9.220;2023-09-18T09:13:26;5.70;;;1.20;;
73599;SDS011;61877;48.246;9.220;2023-09-18T09:15:52;9.25;;;1.60;;
73599;SDS011;61877;48.246;9.220;2023-09-18T09:18:28;5.70;;;1.50;;
73599;SDS011;61877;48.246;9.220;2023-09-18T09:21:00;5.70;;;1.40;;
73599;SDS011;61877;48.246;9.220;2023-09-18T09:23:43;4.80;;;1.10;;
73599;SDS011;61877;48.246;9.220;2023-09-18T09:26:14;5.75;;;1.20;;
73599;SDS011;61877;48.246;9.220;2023-09-18T09:28:41;5.47;;;1.40;;
73599;SDS011;61877;48.246;9.220;2023-09-18T09:31:07;5.60;;;1.20;;
73599;SDS011;61877;48.246;9.220;2023-09-18T09:33:40;5.83;;;1.20;;
73599;SDS011;61877;48.246;9.220;2023-09-18T09:36:15;7.20;;;1.20;;
73599;SDS011;61877;48.246;9.220;2023-09-18T09:38:42;7.23;;;1.30;;
73599;SDS011;61877;48.246;9.220;2023-09-18T09:41:19;7.50;;;1.40;;
73599;SDS011;61877;48.246;9.220;2023-09-18T09:43:45;6.65;;;1.30;;
73599;SDS011;61877;48.246;9.220;2023-09-18T09:46:15;6.40;;;1.35;;
73599;SDS011;61877;48.246;9.220;2023-09-18T09:48:47;5.73;;;1.27;;
73599;SDS011;61877;48.246;9.220;2023-09-18T09:51:30;6.35;;;1.30;;
73599;SDS011;61877;48.246;9.220;2023-09-18T09:53:58;5.50;;;1.23;;
73599;SDS011;61877;48.246;9.220;2023-09-18T09:59:05;6.25;;;1.30;;
73599;SDS011;61877;48.246;9.220;2023-09-18T10:01:31;5.50;;;1.50;;
73599;SDS011;61877;48.246;9.220;2023-09-18T10:03:57;6.32;;;1.80;;
73599;SDS011;61877;48.246;9.220;2023-09-18T10:06:24;7.65;;;1.60;;
73599;SDS011;61877;48.246;9.220;2023-09-18T10:08:52;6.45;;;1.30;;
73599;SDS011;61877;48.246;9.220;2023-09-18T10:11:22;5.10;;;1.40;;
73599;SDS011;61877;48.246;9.220;2023-09-18T10:13:53;5.57;;;1.38;;
73599;SDS011;61877;48.246;9.220;2023-09-18T10:16:32;6.72;;;1.55;;
73599;SDS011;61877;48.246;9.220;2023-09-18T10:19:06;6.35;;;1.40;;
73599;SDS011;61877;48.246;9.220;2023-09-18T10:21:46;7.68;;;1.67;;
73599;SDS011;61877;48.246;9.220;2023-09-18T10:24:22;7.73;;;1.50;;
73599;SDS011;61877;48.246;9.220;2023-09-18T10:26:56;5.78;;;1.48;;
73599;SDS011;61877;48.246;9.220;2023-09-18T10:29:26;6.00;;;1.55;;
73599;SDS011;61877;48.246;9.220;2023-09-18T10:31:53;6.15;;;1.50;;
73599;SDS011;61877;48.246;9.220;2023-09-18T10:34:19;7.03;;;1.60;;
73599;SDS011;61877;48.246;9.220;2023-09-18T10:36:57;6.57;;;1.43;;
73599;SDS011;61877;48.246;9.220;2023-09-18T10:39:25;7.60;;;1.50;;
73599;SDS011;61877;48.246;9.220;2023-09-18T10:41:55;6.97;;;1.60;;
73599;SDS011;61877;48.246;9.220;2023-09-18T10:44:28;6.28;;;1.73;;
73599;SDS011;61877;48.246;9.220;2023-09-18T10:46:57;6.47;;;1.88;;
73599;SDS011;61877;48.246;9.220;2023-09-18T10:49:24;7.30;;;1.73;;
73599;SDS011;61877;48.246;9.220;2023-09-18T10:51:52;8.48;;;1.90;;
73599;SDS011;61877;48.246;9.220;2023-09-18T10:54:20;6.63;;;1.75;;
73599;SDS011;61877;48.246;9.220;2023-09-18T10:56:48;6.32;;;1.65;;
73599;SDS011;61877;48.246;9.220;2023-09-18T10:59:16;6.38;;;1.55;;
73599;SDS011;61877;48.246;9.220;2023-09-18T11:01:49;6.60;;;1.70;;
73599;SDS011;61877;48.246;9.220;2023-09-18T11:04:18;5.55;;;1.60;;
73599;SDS011;61877;48.246;9.220;2023-09-18T11:07:04;7.88;;;1.70;;
73599;SDS011;61877;48.246;9.220;2023-09-18T11:09:30;6.43;;;1.50;;
73599;SDS011;61877;48.246;9.220;2023-09-18T11:12:01;6.75;;;1.70;;
73599;SDS011;61877;48.246;9.220;2023-09-18T11:14:41;6.87;;;1.53;;
73599;SDS011;61877;48.246;9.220;2023-09-18T11:17:41;7.13;;;1.73;;
73599;SDS011;61877;48.246;9.220;2023-09-18T11:20:17;5.63;;;1.77;;
73599;SDS011;61877;48.246;9.220;2023-09-18T11:22:55;5.95;;;2.00;;
73599;SDS011;61877;48.246;9.220;2023-09-18T11:25:47;6.60;;;1.90;;
73599;SDS011;61877;48.246;9.220;2023-09-18T11:28:13;7.03;;;2.20;;
73599;SDS011;61877;48.246;9.220;2023-09-18T11:30:51;6.47;;;1.73;;
73599;SDS011;61877;48.246;9.220;2023-09-18T11:33:29;5.70;;;1.90;;
73599;SDS011;61877;48.246;9.220;2023-09-18T11:35:55;7.45;;;2.05;;
73599;SDS011;61877;48.246;9.220;2023-09-18T11:38:21;7.30;;;1.73;;
73599;SDS011;61877;48.246;9.220;2023-09-18T11:40:49;7.57;;;2.08;;
73599;SDS011;61877;48.246;9.220;2023-09-18T11:43:20;7.97;;;1.97;;
73599;SDS011;61877;48.246;9.220;2023-09-18T11:45:52;8.35;;;1.90;;
73599;SDS011;61877;48.246;9.220;2023-09-18T11:48:18;9.10;;;2.30;;
73599;SDS011;61877;48.246;9.220;2023-09-18T11:50:44;6.40;;;1.92;;
73599;SDS011;61877;48.246;9.220;2023-09-18T11:53:11;7.53;;;2.20;;
73599;SDS011;61877;48.246;9.220;2023-09-18T11:55:37;7.77;;;2.20;;
73599;SDS011;61877;48.246;9.220;2023-09-18T11:58:03;8.23;;;2.17;;
73599;SDS011;61877;48.246;9.220;2023-09-18T12:00:32;7.18;;;2.20;;
73599;SDS011;61877;48.246;9.220;2023-09-18T12:02:59;8.17;;;2.10;;
73599;SDS011;61877;48.246;9.220;2023-09-18T12:05:39;6.60;;;2.15;;
73599;SDS011;61877;48.246;9.220;2023-09-18T12:08:46;6.97;;;2.10;;
73599;SDS011;61877;48.246;9.220;2023-09-18T12:14:11;7.65;;;2.70;;
73599;SDS011;61877;48.246;9.220;2023-09-18T12:16:47;6.60;;;2.10;;
73599;SDS011;61877;48.246;9.220;2023-09-18T12:19:28;6.28;;;1.90;;
73599;SDS011;61877;48.246;9.220;2023-09-18T12:23:25;7.70;;;2.17;;
73599;SDS011;61877;48.246;9.220;2023-09-18T12:25:26;6.03;;;2.00;;
73599;SDS011;61877;48.246;9.220;2023-09-18T12:27:52;7.00;;;2.30;;
73599;SDS011;61877;48.246;9.220;2023-09-18T12:30:20;9.23;;;1.95;;
73599;SDS011;61877;48.246;9.220;2023-09-18T12:32:46;7.55;;;2.00;;
73599;SDS011;61877;48.246;9.220;2023-09-18T12:35:14;6.20;;;1.83;;
73599;SDS011;61877;48.246;9.220;2023-09-18T12:37:46;7.15;;;1.90;;
73599;SDS011;61877;48.246;9.220;2023-09-18T12:40:22;6.70;;;1.80;;
73599;SDS011;61877;48.246;9.220;2023-09-18T12:42:49;7.37;;;1.70;;
73599;SDS011;61877;48.246;9.220;2023-09-18T12:57:15;5.77;;;1.70;;
73599;SDS011;61877;48.246;9.220;2023-09-18T12:59:50;5.85;;;1.70;;
73599;SDS011;61877;48.246;9.220;2023-09-18T13:02:27;6.07;;;1.75;;
73599;SDS011;61877;48.246;9.220;2023-09-18T13:04:55;6.80;;;1.85;;
73599;SDS011;61877;48.246;9.220;2023-09-18T13:07:26;5.78;;;1.70;;
73599;SDS011;61877;48.246;9.220;2023-09-18T13:13:05;6.63;;;1.70;;
73599;SDS011;61877;48.246;9.220;2023-09-18T13:15:31;5.88;;;1.67;;
73599;SDS011;61877;48.246;9.220;2023-09-18T13:18:08;7.73;;;1.70;;
73599;SDS011;61877;48.246;9.220;2023-09-18T13:20:34;6.10;;;1.90;;
73599;SDS011;61877;48.246;9.220;2023-09-18T13:23:09;7.30;;;2.00;;
73599;SDS011;61877;48.246;9.220;2023-09-18T13:25:37;6.65;;;1.90;;
73599;SDS011;61877;48.246;9.220;2023-09-18T13:28:07;6.57;;;1.90;;
73599;SDS011;61877;48.246;9.220;2023-09-18T13:33:20;5.57;;;1.88;;
73599;SDS011;61877;48.246;9.220;2023-09-18T13:35:46;6.80;;;1.80;;
73599;SDS011;61877;48.246;9.220;2023-09-18T13:38:11;6.35;;;1.60;;
73599;SDS011;61877;48.246;9.220;2023-09-18T13:40:39;5.60;;;1.80;;
73599;SDS011;61877;48.246;9.220;2023-09-18T13:43:05;6.05;;;1.85;;
73599;SDS011;61877;48.246;9.220;2023-09-18T13:45:42;5.53;;;1.65;;
73599;SDS011;61877;48.246;9.220;2023-09-18T13:51:13;7.80;;;2.30;;
73599;SDS011;61877;48.246;9.220;2023-09-18T13:53:44;5.97;;;1.70;;
73599;SDS011;61877;48.246;9.220;2023-09-18T13:56:14;7.22;;;1.80;;
73599;SDS011;61877;48.246;9.220;2023-09-18T13:58:42;5.50;;;1.85;;
73599;SDS011;61877;48.246;9.220;2023-09-18T14:01:10;6.88;;;1.98;;
73599;SDS011;61877;48.246;9.220;2023-09-18T14:03:38;6.50;;;1.80;;
73599;SDS011;61877;48.246;9.220;2023-09-18T14:06:03;6.13;;;1.80;;
73599;SDS011;61877;48.246;9.220;2023-09-18T14:08:29;6.65;;;2.10;;
73599;SDS011;61877;48.246;9.220;2023-09-18T14:10:55;6.13;;;1.63;;
73599;SDS011;61877;48.246;9.220;2023-09-18T14:13:26;6.90;;;2.17;;
73599;SDS011;61877;48.246;9.220;2023-09-18T14:18:51;5.30;;;1.90;;
73599;SDS011;61877;48.246;9.220;2023-09-18T14:21:17;5.93;;;2.00;;
73599;SDS011;61877;48.246;9.220;2023-09-18T14:26:53;6.47;;;1.73;;
73599;SDS011;61877;48.246;9.220;2023-09-18T14:35:14;6.87;;;1.83;;
73599;SDS011;61877;48.246;9.220;2023-09-18T14:37:51;6.70;;;1.80;;
73599;SDS011;61877;48.246;9.220;2023-09-18T14:40:19;5.32;;;1.63;;
73599;SDS011;61877;48.246;9.220;2023-09-18T14:42:56;6.28;;;1.90;;
73599;SDS011;61877;48.246;9.220;2023-09-18T14:45:24;6.00;;;1.98;;
73599;SDS011;61877;48.246;9.220;2023-09-18T14:50:35;6.75;;;1.60;;
73599;SDS011;61877;48.246;9.220;2023-09-18T14:53:00;6.55;;;1.95;;
73599;SDS011;61877;48.246;9.220;2023-09-18T14:55:26;8.00;;;1.80;;
73599;SDS011;61877;48.246;9.220;2023-09-18T14:57:54;6.03;;;1.70;;
73599;SDS011;61877;48.246;9.220;2023-09-18T15:00:20;8.13;;;1.70;;
73599;SDS011;61877;48.246;9.220;2023-09-18T15:02:48;5.13;;;1.63;;
73599;SDS011;61877;48.246;9.220;2023-09-18T15:05:24;6.28;;;1.40;;
73599;SDS011;61877;48.246;9.220;2023-09-18T15:07:49;7.57;;;1.80;;
73599;SDS011;61877;48.246;9.220;2023-09-18T15:10:18;6.88;;;2.05;;
73599;SDS011;61877;48.246;9.220;2023-09-18T15:12:46;6.30;;;1.75;;
73599;SDS011;61877;48.246;9.220;2023-09-18T15:15:12;6.57;;;1.73;;
73599;SDS011;61877;48.246;9.220;2023-09-18T15:17:37;6.40;;;1.60;;
73599;SDS011;61877;48.246;9.220;2023-09-18T15:20:03;5.82;;;1.70;;
73599;SDS011;61877;48.246;9.220;2023-09-18T15:22:33;5.90;;;1.90;;
73599;SDS011;61877;48.246;9.220;2023-09-18T15:24:59;5.70;;;1.55;;
73599;SDS011;61877;48.246;9.220;2023-09-18T15:27:24;5.83;;;1.70;;
73599;SDS011;61877;48.246;9.220;2023-09-18T15:29:49;5.93;;;1.70;;
73599;SDS011;61877;48.246;9.220;2023-09-18T15:32:26;6.40;;;1.50;;
73599;SDS011;61877;48.246;9.220;2023-09-18T15:34:55;7.40;;;2.10;;
73599;SDS011;61877;48.246;9.220;2023-09-18T15:37:20;6.73;;;2.17;;